createdAt,value
2022-11-10T00:01:09.862Z,10.95
2022-11-10T00:03:38.587Z,10.94
2022-11-10T00:06:06.808Z,10.96
2022-11-10T00:08:34.698Z,10.95
2022-11-10T00:11:06.992Z,10.94
2022-11-10T00:13:56.486Z,10.95
2022-11-10T00:16:42.175Z,10.94
2022-11-10T00:19:08.739Z,10.93
2022-11-10T00:21:36.720Z,10.97
2022-11-10T00:24:03.863Z,10.95
2022-11-10T00:26:30.705Z,10.94
2022-11-10T00:28:57.228Z,10.92
2022-11-10T00:31:23.720Z,10.91
2022-11-10T00:33:52.472Z,10.91
2022-11-10T00:36:19.192Z,10.87
2022-11-10T00:38:45.731Z,10.86
2022-11-10T00:41:13.016Z,10.85
2022-11-10T00:43:39.555Z,10.86
2022-11-10T00:46:06.725Z,10.86
2022-11-10T00:48:33.317Z,10.86
2022-11-10T00:51:00.446Z,10.84
2022-11-10T00:53:27.146Z,10.81
2022-11-10T00:55:53.766Z,10.81
2022-11-10T00:58:20.326Z,10.80
2022-11-10T01:00:46.899Z,10.76
2022-11-10T01:03:15.772Z,10.74
2022-11-10T01:05:42.791Z,10.75
2022-11-10T01:08:09.960Z,10.75
2022-11-10T01:10:36.528Z,10.75
2022-11-10T01:13:03.102Z,10.72
2022-11-10T01:15:29.580Z,10.73
2022-11-10T01:17:56.740Z,10.74
2022-11-10T01:20:24.735Z,10.72
2022-11-10T01:22:51.421Z,10.70
2022-11-10T01:25:18.365Z,10.69
2022-11-10T01:27:45.162Z,10.69
2022-11-10T01:30:12.271Z,10.68
2022-11-10T01:32:38.820Z,10.66
2022-11-10T01:35:05.992Z,10.65
2022-11-10T01:37:32.466Z,10.65
2022-11-10T01:39:59.103Z,10.63
2022-11-10T01:42:28.497Z,10.63
2022-11-10T01:45:23.035Z,10.62
2022-11-10T01:47:56.379Z,10.61
2022-11-10T01:50:26.134Z,10.63
2022-11-10T01:52:55.741Z,10.61
2022-11-10T01:55:24.467Z,10.63
2022-11-10T01:57:51.642Z,10.66
2022-11-10T02:00:19.111Z,10.62
2022-11-10T02:03:08.835Z,10.59
2022-11-10T02:05:36.755Z,10.58
2022-11-10T02:08:05.521Z,10.58
2022-11-10T02:10:32.006Z,10.55
2022-11-10T02:12:58.790Z,10.52
2022-11-10T02:15:25.825Z,10.48
2022-11-10T02:17:52.291Z,10.49
2022-11-10T02:20:20.468Z,10.47
2022-11-10T02:22:47.108Z,10.44
2022-11-10T02:25:17.825Z,10.45
2022-11-10T02:27:44.372Z,10.42
2022-11-10T02:30:11.968Z,10.40
2022-11-10T02:32:38.550Z,10.43
2022-11-10T02:35:05.363Z,10.40
2022-11-10T02:37:31.917Z,10.40
2022-11-10T02:39:58.822Z,10.38
2022-11-10T02:42:25.301Z,10.40
2022-11-10T02:44:51.811Z,10.40
2022-11-10T02:47:18.869Z,10.40
2022-11-10T02:49:45.429Z,10.40
2022-11-10T02:52:12.017Z,10.41
2022-11-10T02:54:38.584Z,10.36
2022-11-10T02:57:05.079Z,10.35
2022-11-10T02:59:31.581Z,10.36
2022-11-10T03:01:58.052Z,10.37
2022-11-10T03:04:24.831Z,10.38
2022-11-10T03:06:52.124Z,10.38
2022-11-10T03:09:18.658Z,10.39
2022-11-10T03:11:45.835Z,10.40
2022-11-10T03:14:12.299Z,10.41
2022-11-10T03:16:38.780Z,10.41
2022-11-10T03:19:05.354Z,10.38
2022-11-10T03:21:31.814Z,10.44
2022-11-10T03:23:58.303Z,10.43
2022-11-10T03:26:24.818Z,10.45
2022-11-10T03:28:51.476Z,10.47
2022-11-10T03:31:17.997Z,10.45
2022-11-10T03:33:44.477Z,10.46
2022-11-10T03:36:11.164Z,10.49
2022-11-10T03:38:37.863Z,10.46
2022-11-10T03:41:18.943Z,10.45
2022-11-10T03:43:46.901Z,10.40
2022-11-10T03:46:13.396Z,10.40
2022-11-10T03:48:39.915Z,10.36
2022-11-10T03:51:06.674Z,10.31
2022-11-10T03:53:33.194Z,10.31
2022-11-10T03:56:05.102Z,10.30
2022-11-10T03:58:32.174Z,10.28
2022-11-10T04:00:59.120Z,10.27
2022-11-10T04:03:26.106Z,10.24
2022-11-10T04:06:11.124Z,10.24
2022-11-10T04:08:56.579Z,10.23
2022-11-10T04:11:41.489Z,10.23
2022-11-10T04:14:27.424Z,10.22
2022-11-10T04:16:54.060Z,10.22
2022-11-10T04:19:20.644Z,10.21
2022-11-10T04:21:47.569Z,10.20
2022-11-10T04:24:14.407Z,10.21
2022-11-10T04:26:42.862Z,10.22
2022-11-10T04:29:12.022Z,10.19
2022-11-10T04:31:40.989Z,10.19
2022-11-10T04:34:10.266Z,10.18
2022-11-10T04:36:39.462Z,10.18
2022-11-10T04:39:07.939Z,10.14
2022-11-10T04:41:35.008Z,10.13
2022-11-10T04:44:02.270Z,10.14
2022-11-10T04:46:42.703Z,10.14
2022-11-10T04:49:11.001Z,10.10
2022-11-10T04:51:39.141Z,10.17
2022-11-10T04:54:07.395Z,10.24
2022-11-10T04:56:35.014Z,10.23
2022-11-10T04:59:02.368Z,10.18
2022-11-10T05:01:28.985Z,10.14
2022-11-10T05:03:55.962Z,10.11
2022-11-10T05:06:22.569Z,10.12
2022-11-10T05:08:49.820Z,10.09
2022-11-10T05:11:16.815Z,10.06
2022-11-10T05:13:44.238Z,10.03
2022-11-10T05:16:11.743Z,10.02
2022-11-10T05:18:38.395Z,10.02
2022-11-10T05:21:05.095Z,10.04
2022-11-10T05:23:44.059Z,10.06
2022-11-10T05:26:17.920Z,10.06
2022-11-10T05:28:45.982Z,10.10
2022-11-10T05:31:13.424Z,10.08
2022-11-10T05:33:40.376Z,10.08
2022-11-10T05:36:07.930Z,10.09
2022-11-10T05:38:38.880Z,10.08
2022-11-10T05:41:08.614Z,10.06
2022-11-10T05:43:35.524Z,10.06
2022-11-10T05:46:02.418Z,10.01
2022-11-10T05:48:28.940Z,9.99
2022-11-10T05:50:55.476Z,9.99
2022-11-10T05:53:22.350Z,9.99
2022-11-10T05:55:49.300Z,10.02
2022-11-10T05:58:15.809Z,9.96
2022-11-10T06:00:42.359Z,9.98
2022-11-10T06:03:20.097Z,9.99
2022-11-10T06:05:47.504Z,9.96
2022-11-10T06:08:14.486Z,9.98
2022-11-10T06:10:41.098Z,9.97
2022-11-10T06:13:07.619Z,9.97
2022-11-10T06:15:34.230Z,9.95
2022-11-10T06:18:00.776Z,9.96
2022-11-10T06:20:27.671Z,9.98
2022-11-10T06:23:01.936Z,9.98
2022-11-10T06:25:30.028Z,9.98
2022-11-10T06:27:57.413Z,9.98
2022-11-10T06:30:25.561Z,10.01
2022-11-10T06:32:52.343Z,10.00
2022-11-10T06:35:19.521Z,10.01
2022-11-10T06:37:46.375Z,10.03
2022-11-10T06:40:16.507Z,10.03
2022-11-10T06:42:43.030Z,10.01
2022-11-10T06:45:09.834Z,10.01
2022-11-10T06:47:36.358Z,10.01
2022-11-10T06:50:03.172Z,10.04
2022-11-10T06:52:31.592Z,10.06
2022-11-10T06:54:59.011Z,10.02
2022-11-10T06:57:25.516Z,10.02
2022-11-10T06:59:52.039Z,10.05
2022-11-10T07:02:18.549Z,10.05
2022-11-10T07:04:45.104Z,10.10
2022-11-10T07:07:12.204Z,10.09
2022-11-10T07:09:38.843Z,10.11
2022-11-10T07:12:05.775Z,10.14
2022-11-10T07:14:32.420Z,10.10
2022-11-10T07:16:58.954Z,10.14
2022-11-10T07:19:25.403Z,10.16
2022-11-10T07:21:51.970Z,10.18
2022-11-10T07:24:18.435Z,10.16
2022-11-10T07:26:44.943Z,10.20
2022-11-10T07:29:11.554Z,10.22
2022-11-10T07:31:37.997Z,10.20
2022-11-10T07:34:04.931Z,10.23
2022-11-10T07:36:31.423Z,10.28
2022-11-10T07:38:57.968Z,10.34
2022-11-10T07:41:24.481Z,10.35
2022-11-10T07:43:50.977Z,10.41
2022-11-10T07:46:17.466Z,10.51
2022-11-10T07:48:43.976Z,10.63
2022-11-10T07:51:10.444Z,10.70
2022-11-10T07:53:37.137Z,10.78
2022-11-10T07:56:03.627Z,10.83
2022-11-10T07:58:31.067Z,10.87
2022-11-10T08:00:57.709Z,10.91
2022-11-10T08:03:24.476Z,10.97
2022-11-10T08:05:51.937Z,11.11
2022-11-10T08:08:19.138Z,11.13
2022-11-10T08:10:45.640Z,11.15
2022-11-10T08:13:13.465Z,11.21
2022-11-10T08:15:41.193Z,11.18
2022-11-10T08:18:16.047Z,11.15
2022-11-10T08:20:43.156Z,11.18
2022-11-10T08:23:10.003Z,11.22
2022-11-10T08:25:37.890Z,11.25
2022-11-10T08:28:06.176Z,11.25
2022-11-10T08:30:33.981Z,11.31
2022-11-10T08:33:02.204Z,11.40
2022-11-10T08:35:30.775Z,11.43
2022-11-10T08:37:57.698Z,11.41
2022-11-10T08:40:27.801Z,11.43
2022-11-10T08:43:02.750Z,11.45
2022-11-10T08:45:29.511Z,11.46
2022-11-10T08:48:00.198Z,11.51
2022-11-10T08:50:27.643Z,11.55
2022-11-10T08:52:54.505Z,11.59
2022-11-10T08:55:21.576Z,11.64
2022-11-10T08:57:48.632Z,11.64
2022-11-10T09:00:16.445Z,11.68
2022-11-10T09:02:43.178Z,11.72
2022-11-10T09:05:10.993Z,11.75
2022-11-10T09:07:48.951Z,11.83
2022-11-10T09:10:16.179Z,11.92
2022-11-10T09:12:43.316Z,11.94
2022-11-10T09:15:11.140Z,11.96
2022-11-10T09:17:41.518Z,12.03
2022-11-10T09:20:09.812Z,12.12
2022-11-10T09:22:36.730Z,12.16
2022-11-10T09:25:04.323Z,12.20
2022-11-10T09:27:31.475Z,12.22
2022-11-10T09:29:57.985Z,12.32
2022-11-10T09:32:24.809Z,12.38
2022-11-10T09:34:53.130Z,12.44
2022-11-10T09:37:19.988Z,12.49
2022-11-10T09:39:46.504Z,12.55
2022-11-10T09:42:37.008Z,12.56
2022-11-10T09:45:11.207Z,12.58
2022-11-10T09:48:15.132Z,12.60
2022-11-10T09:50:48.226Z,12.65
2022-11-10T09:53:23.734Z,12.71
2022-11-10T09:55:55.022Z,12.76
2022-11-10T09:58:25.496Z,12.80
2022-11-10T10:01:22.740Z,12.81
2022-11-10T10:03:59.381Z,12.85
2022-11-10T10:06:33.914Z,12.86
2022-11-10T10:09:22.620Z,12.89
2022-11-10T10:12:03.879Z,12.91
2022-11-10T10:14:50.934Z,13.00
2022-11-10T10:17:37.079Z,13.02
2022-11-10T10:20:28.400Z,13.12
2022-11-10T10:23:01.291Z,13.13
2022-11-10T10:25:28.497Z,13.18
2022-11-10T10:28:20.065Z,13.23
2022-11-10T10:30:46.916Z,13.29
2022-11-10T10:33:19.862Z,13.28
2022-11-10T10:35:48.981Z,13.39
2022-11-10T10:38:22.780Z,13.46
2022-11-10T10:40:51.659Z,13.44
2022-11-10T10:43:18.578Z,13.41
2022-11-10T10:45:45.187Z,13.43
2022-11-10T10:48:27.073Z,13.49
2022-11-10T10:50:54.100Z,13.55
2022-11-10T10:53:26.113Z,13.59
2022-11-10T10:56:15.791Z,13.61
2022-11-10T10:59:00.754Z,13.65
2022-11-10T11:01:31.545Z,13.62
2022-11-10T11:03:59.495Z,13.63
2022-11-10T11:06:33.970Z,13.70
2022-11-10T11:09:22.035Z,13.69
2022-11-10T11:12:05.334Z,13.69
2022-11-10T11:14:32.687Z,13.73
2022-11-10T11:17:17.868Z,13.75
2022-11-10T11:19:44.533Z,13.74
2022-11-10T11:22:23.492Z,13.79
2022-11-10T11:25:21.264Z,13.87
2022-11-10T11:28:06.287Z,13.91
2022-11-10T11:30:41.699Z,13.92
2022-11-10T11:33:17.306Z,13.94
2022-11-10T11:35:57.549Z,14.02
2022-11-10T11:38:49.326Z,14.04
2022-11-10T11:41:44.301Z,14.07
2022-11-10T11:44:26.368Z,14.07
2022-11-10T11:47:13.587Z,14.15
2022-11-10T11:50:16.560Z,14.15
2022-11-10T11:52:43.029Z,14.21
2022-11-10T11:55:19.930Z,14.25
2022-11-10T11:58:12.763Z,14.29
2022-11-10T12:01:10.350Z,14.32
2022-11-10T12:03:47.245Z,14.37
2022-11-10T12:06:22.411Z,14.40
2022-11-10T12:09:00.970Z,14.47
2022-11-10T12:11:49.876Z,14.52
2022-11-10T12:14:50.483Z,14.53
2022-11-10T12:17:32.417Z,14.51
2022-11-10T12:20:04.087Z,14.57
2022-11-10T12:22:52.062Z,14.59
2022-11-10T12:25:21.468Z,14.58
2022-11-10T12:27:55.988Z,14.62
2022-11-10T12:30:23.008Z,14.67
2022-11-10T12:33:04.544Z,14.76
2022-11-10T12:35:43.216Z,14.84
2022-11-10T12:38:20.212Z,14.96
2022-11-10T12:40:51.961Z,14.95
2022-11-10T12:43:55.454Z,15.04
2022-11-10T12:46:22.154Z,15.15
2022-11-10T12:49:02.089Z,15.25
2022-11-10T12:51:42.625Z,15.28
2022-11-10T12:54:16.810Z,15.33
2022-11-10T12:56:58.241Z,15.41
2022-11-10T12:59:29.803Z,15.44
2022-11-10T13:02:01.480Z,15.49
2022-11-10T13:04:28.457Z,15.57
2022-11-10T13:07:08.855Z,15.60
2022-11-10T13:09:42.637Z,15.66
2022-11-10T13:12:26.007Z,15.81
2022-11-10T13:14:52.746Z,15.87
2022-11-10T13:17:28.642Z,16.00
2022-11-10T13:20:05.272Z,16.10
2022-11-10T13:22:44.283Z,16.17
2022-11-10T13:25:35.919Z,16.13
2022-11-10T13:28:03.079Z,16.14
2022-11-10T13:30:41.637Z,16.05
2022-11-10T13:33:23.355Z,16.05
2022-11-10T13:35:55.495Z,15.95
2022-11-10T13:38:41.450Z,15.77
2022-11-10T13:41:21.696Z,15.79
2022-11-10T13:43:54.837Z,15.70
2022-11-10T13:46:33.874Z,15.76
2022-11-10T13:49:15.147Z,15.62
2022-11-10T13:51:50.632Z,15.69
2022-11-10T13:54:44.408Z,15.51
2022-11-10T13:57:23.411Z,15.43
2022-11-10T13:59:55.534Z,15.39
2022-11-10T14:02:34.384Z,15.35
2022-11-10T14:05:01.766Z,15.38
2022-11-10T14:07:34.941Z,15.30
2022-11-10T14:10:10.812Z,15.17
2022-11-10T14:12:37.257Z,15.09
2022-11-10T14:15:17.976Z,14.98
2022-11-10T14:17:50.175Z,14.91
2022-11-10T14:20:46.059Z,14.88
2022-11-10T14:23:26.368Z,14.81
2022-11-10T14:26:00.401Z,14.81
2022-11-10T14:28:29.422Z,14.75
2022-11-10T14:30:57.073Z,14.69
2022-11-10T14:33:25.850Z,14.61
2022-11-10T14:35:55.347Z,14.59
2022-11-10T14:38:26.545Z,14.60
2022-11-10T14:40:59.068Z,14.50
2022-11-10T14:43:43.927Z,14.46
2022-11-10T14:46:14.975Z,14.42
2022-11-10T14:48:41.483Z,14.42
2022-11-10T14:51:13.052Z,14.33
2022-11-10T14:53:47.529Z,14.32
2022-11-10T14:56:17.247Z,14.29
2022-11-10T14:58:46.180Z,14.27
2022-11-10T15:01:34.250Z,14.25
2022-11-10T15:04:03.759Z,14.24
2022-11-10T15:06:30.992Z,14.20
2022-11-10T15:08:57.807Z,14.18
2022-11-10T15:11:51.421Z,14.17
2022-11-10T15:14:40.720Z,14.15
2022-11-10T15:17:09.853Z,14.12
2022-11-10T15:19:39.199Z,14.07
2022-11-10T15:22:34.799Z,14.00
2022-11-10T15:25:10.418Z,13.94
2022-11-10T15:27:37.594Z,13.89
2022-11-10T15:30:23.654Z,13.87
2022-11-10T15:32:51.521Z,13.86
2022-11-10T15:35:24.067Z,13.82
2022-11-10T15:38:09.225Z,13.86
2022-11-10T15:40:44.454Z,13.80
2022-11-10T15:43:14.035Z,13.77
2022-11-10T15:45:43.422Z,13.76
2022-11-10T15:48:16.206Z,13.72
2022-11-10T15:50:46.240Z,13.68
2022-11-10T15:53:18.756Z,13.63
2022-11-10T15:55:45.543Z,13.57
2022-11-10T15:58:14.299Z,13.55
2022-11-10T16:00:40.816Z,13.55
2022-11-10T16:03:11.191Z,13.51
2022-11-10T16:05:41.305Z,13.47
2022-11-10T16:08:22.161Z,13.44
2022-11-10T16:10:51.873Z,13.40
2022-11-10T16:13:24.008Z,13.36
2022-11-10T16:15:51.066Z,13.32
2022-11-10T16:18:21.840Z,13.28
2022-11-10T16:20:50.140Z,13.28
2022-11-10T16:23:17.382Z,13.24
2022-11-10T16:25:45.322Z,13.28
2022-11-10T16:28:16.307Z,13.28
2022-11-10T16:30:43.228Z,13.27
2022-11-10T16:33:15.003Z,13.21
2022-11-10T16:35:42.141Z,13.19
2022-11-10T16:38:35.630Z,13.21
2022-11-10T16:41:04.030Z,13.16
2022-11-10T16:43:31.534Z,13.14
2022-11-10T16:46:02.255Z,13.10
2022-11-10T16:48:31.697Z,13.03
2022-11-10T16:51:00.639Z,12.97
2022-11-10T16:53:29.985Z,12.94
2022-11-10T16:55:57.071Z,12.96
2022-11-10T16:58:30.091Z,12.97
2022-11-10T17:01:01.340Z,12.97
2022-11-10T17:03:33.590Z,12.93
2022-11-10T17:06:00.471Z,12.94
2022-11-10T17:08:30.093Z,12.92
2022-11-10T17:10:57.161Z,12.92
2022-11-10T17:13:24.286Z,12.93
2022-11-10T17:15:53.709Z,12.94
2022-11-10T17:18:24.344Z,12.89
2022-11-10T17:20:52.731Z,12.90
2022-11-10T17:23:22.748Z,12.86
2022-11-10T17:25:50.615Z,12.84
2022-11-10T17:28:18.841Z,12.80
2022-11-10T17:30:45.639Z,12.76
2022-11-10T17:33:13.320Z,12.73
2022-11-10T17:35:50.754Z,12.76
2022-11-10T17:38:29.507Z,12.75
2022-11-10T17:40:56.148Z,12.77
2022-11-10T17:43:26.756Z,12.77
2022-11-10T17:45:53.404Z,12.76
2022-11-10T17:48:20.030Z,12.75
2022-11-10T17:50:47.083Z,12.76
2022-11-10T17:53:30.218Z,12.73
2022-11-10T17:55:56.775Z,12.72
2022-11-10T17:58:23.372Z,12.69
2022-11-10T18:00:50.116Z,12.72
2022-11-10T18:03:19.096Z,12.69
2022-11-10T18:05:46.057Z,12.66
2022-11-10T18:08:14.279Z,12.66
2022-11-10T18:10:42.735Z,12.60
2022-11-10T18:13:10.630Z,12.60
2022-11-10T18:15:37.608Z,12.61
2022-11-10T18:18:04.257Z,12.62
2022-11-10T18:20:30.754Z,12.59
2022-11-10T18:22:57.264Z,12.56
2022-11-10T18:25:23.752Z,12.50
2022-11-10T18:27:50.752Z,12.45
2022-11-10T18:30:18.305Z,12.44
2022-11-10T18:32:45.065Z,12.44
2022-11-10T18:35:11.508Z,12.43
2022-11-10T18:37:39.266Z,12.40
2022-11-10T18:40:07.771Z,12.38
2022-11-10T18:42:34.711Z,12.35
2022-11-10T18:45:01.411Z,12.33
2022-11-10T18:47:28.006Z,12.27
2022-11-10T18:49:54.486Z,12.25
2022-11-10T18:52:20.920Z,12.22
2022-11-10T18:54:47.766Z,12.20
2022-11-10T18:57:16.648Z,12.19
2022-11-10T18:59:43.295Z,12.13
2022-11-10T19:02:12.291Z,12.12
2022-11-10T19:04:39.156Z,12.09
2022-11-10T19:07:06.432Z,12.08
2022-11-10T19:09:33.485Z,12.07
2022-11-10T19:11:59.976Z,12.05
2022-11-10T19:14:26.432Z,12.04
2022-11-10T19:16:53.031Z,11.96
2022-11-10T19:19:19.523Z,11.91
2022-11-10T19:21:46.002Z,11.87
2022-11-10T19:24:18.158Z,11.83
2022-11-10T19:26:52.586Z,11.87
2022-11-10T19:29:19.313Z,11.85
2022-11-10T19:31:46.588Z,11.80
2022-11-10T19:34:13.092Z,11.78
2022-11-10T19:36:39.590Z,11.75
2022-11-10T19:39:06.643Z,11.69
2022-11-10T19:41:33.069Z,11.64
2022-11-10T19:44:00.479Z,11.66
2022-11-10T19:46:29.666Z,11.63
2022-11-10T19:48:57.139Z,11.61
2022-11-10T19:51:25.334Z,11.61
2022-11-10T19:54:05.010Z,11.58
2022-11-10T19:56:34.570Z,11.54
2022-11-10T19:59:01.827Z,11.55
2022-11-10T20:01:31.687Z,11.48
2022-11-10T20:04:00.048Z,11.48
2022-11-10T20:06:26.634Z,11.47
2022-11-10T20:08:53.094Z,11.44
2022-11-10T20:11:25.876Z,11.43
2022-11-10T20:13:55.522Z,11.39
2022-11-10T20:16:22.399Z,11.34
2022-11-10T20:18:49.320Z,11.33
2022-11-10T20:21:18.858Z,11.30
2022-11-10T20:23:45.352Z,11.30
2022-11-10T20:26:16.262Z,11.28
2022-11-10T20:28:44.172Z,11.28
2022-11-10T20:31:16.205Z,11.30
2022-11-10T20:33:43.145Z,11.27
2022-11-10T20:36:20.328Z,11.28
2022-11-10T20:38:48.720Z,11.24
2022-11-10T20:41:19.454Z,11.21
2022-11-10T20:43:47.008Z,11.20
2022-11-10T20:46:40.383Z,11.13
2022-11-10T20:49:04.979Z,11.10
2022-11-10T20:51:31.444Z,11.04
2022-11-10T20:54:00.073Z,11.01
2022-11-10T20:56:29.643Z,11.01
2022-11-10T20:58:57.193Z,10.99
2022-11-10T21:01:23.875Z,10.96
2022-11-10T21:03:50.730Z,10.94
2022-11-10T21:06:17.514Z,10.95
2022-11-10T21:08:44.224Z,10.90
2022-11-10T21:11:11.100Z,10.92
2022-11-10T21:13:38.038Z,10.89
2022-11-10T21:16:06.164Z,10.86
2022-11-10T21:18:36.909Z,10.85
2022-11-10T21:21:05.489Z,10.88
2022-11-10T21:23:32.321Z,10.83
2022-11-10T21:26:00.658Z,10.76
2022-11-10T21:28:27.575Z,10.78
2022-11-10T21:31:03.655Z,10.79
2022-11-10T21:33:30.235Z,10.81
2022-11-10T21:35:56.758Z,10.77
2022-11-10T21:38:23.294Z,10.77
2022-11-10T21:40:49.815Z,10.73
2022-11-10T21:43:16.337Z,10.71
2022-11-10T21:45:42.876Z,10.71
2022-11-10T21:48:09.361Z,10.73
2022-11-10T21:50:35.931Z,10.72
2022-11-10T21:53:07.097Z,10.74
2022-11-10T21:55:33.680Z,10.70
2022-11-10T21:58:00.720Z,10.68
2022-11-10T22:00:27.804Z,10.64
2022-11-10T22:02:58.949Z,10.63
2022-11-10T22:05:25.717Z,10.61
2022-11-10T22:07:52.262Z,10.60
2022-11-10T22:10:37.952Z,10.66
2022-11-10T22:13:23.808Z,10.78
2022-11-10T22:16:08.788Z,11.06
2022-11-10T22:18:38.435Z,11.41
2022-11-10T22:21:05.776Z,11.76
2022-11-10T22:23:52.034Z,11.84
2022-11-10T22:26:19.248Z,12.10
2022-11-10T22:28:46.420Z,12.36
2022-11-10T22:31:13.287Z,12.63
2022-11-10T22:33:42.476Z,12.82
2022-11-10T22:36:11.652Z,12.88
2022-11-10T22:38:41.026Z,12.57
2022-11-10T22:41:31.654Z,12.17
2022-11-10T22:44:04.012Z,11.78
2022-11-10T22:46:46.185Z,11.52
2022-11-10T22:49:16.383Z,11.34
2022-11-10T22:51:45.172Z,11.19
2022-11-10T22:54:17.656Z,11.02
2022-11-10T22:56:45.105Z,10.90
2022-11-10T22:59:12.615Z,10.82
2022-11-10T23:01:40.753Z,10.68
2022-11-10T23:04:07.291Z,10.57
2022-11-10T23:06:33.829Z,10.54
2022-11-10T23:09:00.758Z,10.50
2022-11-10T23:11:30.240Z,10.49
2022-11-10T23:13:56.844Z,10.40
2022-11-10T23:16:26.552Z,10.34
2022-11-10T23:18:54.767Z,10.33
2022-11-10T23:21:24.259Z,10.32
2022-11-10T23:23:51.442Z,10.32
2022-11-10T23:26:20.920Z,10.33
2022-11-10T23:28:47.788Z,10.27
2022-11-10T23:31:17.139Z,10.27
2022-11-10T23:33:45.292Z,10.22
2022-11-10T23:36:13.407Z,10.20
2022-11-10T23:38:40.687Z,10.18
2022-11-10T23:41:10.119Z,10.21
2022-11-10T23:43:36.604Z,10.20
2022-11-10T23:46:07.412Z,10.15
2022-11-10T23:48:35.185Z,10.11
2022-11-10T23:51:01.824Z,10.04
2022-11-10T23:53:28.763Z,10.05
2022-11-10T23:56:21.677Z,10.03
2022-11-10T23:58:48.146Z,10.04
